Time;durP1;ratioP1;P1;durP2;ratioP2;P2;SDS_P1;SDS_P2;PMS_P1;PMS_P2;Temp;Humidity;BMP_temperature;BMP_pressure;BME280_temperature;BME280_humidity;BME280_pressure;Samples;Min_cycle;Max_cycle;Signal;HPM_P1;HPM_P2
2020/12/23 00:00:13;;;;;;;19.63;14.23;;;14.00;78.20;;;;;;5040727;28;20103;-76
2020/12/23 00:02:40;;;;;;;26.13;15.18;;;14.00;78.40;;;;;;5055375;28;20040;-76
2020/12/23 00:05:07;;;;;;;21.05;15.07;;;13.90;78.40;;;;;;5067208;28;20042;-76
2020/12/23 00:07:33;;;;;;;24.67;15.77;;;13.90;78.50;;;;;;5047054;28;20029;-77
2020/12/23 00:09:59;;;;;;;23.67;15.30;;;13.90;78.70;;;;;;5052995;28;20052;-76
2020/12/23 00:12:24;;;;;;;23.15;15.07;;;13.90;78.70;;;;;;5069913;28;20035;-76
2020/12/23 00:14:50;;;;;;;27.35;17.52;;;14.00;78.70;;;;;;5082776;28;20067;-77
2020/12/23 00:17:19;;;;;;;26.55;15.63;;;14.00;78.60;;;;;;5061464;28;20124;-76
2020/12/23 00:19:46;;;;;;;22.52;15.07;;;14.00;78.50;;;;;;5059743;28;20036;-77
2020/12/23 00:22:12;;;;;;;23.00;15.68;;;14.10;78.40;;;;;;5053681;28;20025;-77
2020/12/23 00:24:37;;;;;;;25.83;17.52;;;14.10;78.40;;;;;;5070970;28;20087;-76
2020/12/23 00:27:03;;;;;;;25.30;16.52;;;14.50;78.60;;;;;;5035362;28;20045;-76
2020/12/23 00:29:29;;;;;;;25.15;16.20;;;14.10;78.30;;;;;;5061826;28;20047;-77
2020/12/23 00:31:54;;;;;;;24.90;15.65;;;14.00;78.40;;;;;;5063977;28;20047;-76
2020/12/23 00:34:20;;;;;;;29.30;19.33;;;14.00;78.50;;;;;;5039998;28;20036;-76
2020/12/23 00:36:57;;;;;;;25.98;16.63;;;14.10;78.50;;;;;;5040561;28;20040;-77
2020/12/23 00:39:23;;;;;;;25.67;17.58;;;14.10;78.40;;;;;;5069046;28;20036;-76
2020/12/23 00:41:49;;;;;;;29.40;18.90;;;14.10;78.40;;;;;;5052974;28;20151;-77
2020/12/23 00:44:16;;;;;;;26.83;17.52;;;14.10;78.30;;;;;;5072788;28;20024;-77
2020/12/23 00:46:41;;;;;;;31.67;17.65;;;14.10;78.30;;;;;;5076704;28;20041;-77
2020/12/23 00:49:08;;;;;;;29.77;18.25;;;14.10;78.40;;;;;;5070003;28;20055;-76
2020/12/23 00:51:34;;;;;;;27.50;17.08;;;14.10;78.50;;;;;;5041298;28;20134;-76
2020/12/23 00:54:00;;;;;;;26.77;16.27;;;14.10;78.50;;;;;;5038565;28;20112;-77
2020/12/23 00:56:25;;;;;;;33.80;16.98;;;14.10;78.40;;;;;;5044182;28;20458;-77
2020/12/23 00:58:51;;;;;;;26.88;18.05;;;14.10;78.50;;;;;;5085166;28;20037;-77
2020/12/23 01:01:16;;;;;;;30.48;18.15;;;14.10;78.50;;;;;;5048868;28;20109;-77
2020/12/23 01:03:43;;;;;;;29.77;18.73;;;14.10;78.50;;;;;;5048154;28;20056;-76
2020/12/23 01:06:10;;;;;;;29.88;20.25;;;14.10;78.50;;;;;;5068625;28;20055;-76
2020/12/23 01:08:35;;;;;;;33.05;20.00;;;14.10;78.50;;;;;;5056588;28;20363;-76
2020/12/23 01:11:04;;;;;;;33.10;20.42;;;14.10;78.50;;;;;;5077020;28;20035;-77
2020/12/23 01:13:29;;;;;;;34.88;20.65;;;14.10;78.50;;;;;;5073249;28;20037;-77
2020/12/23 01:15:55;;;;;;;36.55;21.40;;;14.10;78.50;;;;;;5074597;28;20492;-77
2020/12/23 01:18:20;;;;;;;32.13;18.05;;;14.20;78.60;;;;;;5057608;28;20110;-76
2020/12/23 01:20:46;;;;;;;29.40;17.80;;;14.20;78.60;;;;;;5060039;28;20453;-77
2020/12/23 01:23:12;;;;;;;40.88;21.13;;;14.20;78.50;;;;;;5043777;28;20067;-77
2020/12/23 01:25:37;;;;;;;35.22;20.23;;;14.20;78.50;;;;;;5071346;28;20163;-76
2020/12/23 01:28:03;;;;;;;34.65;19.10;;;14.20;78.50;;;;;;5065204;28;20039;-77
2020/12/23 01:30:28;;;;;;;34.35;19.55;;;14.20;78.50;;;;;;5072713;28;20048;-77
2020/12/23 01:32:54;;;;;;;34.88;20.80;;;14.10;78.60;;;;;;5080454;28;20039;-77
2020/12/23 01:35:19;;;;;;;34.35;19.52;;;14.10;78.80;;;;;;5053696;28;20112;-77
2020/12/23 01:37:45;;;;;;;38.42;20.08;;;14.10;78.80;;;;;;5077779;28;20338;-77
2020/12/23 01:40:11;;;;;;;32.38;18.83;;;14.10;78.80;;;;;;5080312;28;20040;-76
2020/12/23 01:42:36;;;;;;;39.05;20.08;;;14.10;78.80;;;;;;5074887;28;20032;-76
2020/12/23 01:45:04;;;;;;;36.42;20.75;;;14.10;78.80;;;;;;5063534;28;20054;-76
2020/12/23 01:47:31;;;;;;;40.72;19.17;;;14.10;78.90;;;;;;5075395;28;20110;-77
2020/12/23 01:49:57;;;;;;;38.15;19.98;;;14.10;79.00;;;;;;5076231;28;20051;-76
2020/12/23 01:52:24;;;;;;;36.63;19.73;;;14.10;79.10;;;;;;5058115;28;20052;-77
2020/12/23 01:54:53;;;;;;;38.75;19.38;;;14.00;79.10;;;;;;5074676;28;20020;-76
2020/12/23 01:57:18;;;;;;;36.58;20.00;;;14.00;79.10;;;;;;5079649;28;20056;-75
2020/12/23 01:59:45;;;;;;;40.10;21.33;;;14.00;79.20;;;;;;5076142;28;20056;-76
2020/12/23 02:02:31;;;;;;;33.90;18.58;;;13.90;79.50;;;;;;5053230;28;20057;-76
2020/12/23 02:05:02;;;;;;;35.85;18.70;;;13.90;79.50;;;;;;5048811;28;20498;-76
2020/12/23 02:07:28;;;;;;;37.60;20.15;;;13.90;79.40;;;;;;5044098;28;20029;-76
2020/12/23 02:09:57;;;;;;;39.15;20.45;;;13.90;79.50;;;;;;5058788;28;20066;-76
2020/12/23 02:12:23;;;;;;;40.05;21.67;;;13.90;79.60;;;;;;5054662;28;20029;-76
2020/12/23 02:14:50;;;;;;;43.42;22.05;;;13.80;79.80;;;;;;5053937;28;20048;-76
2020/12/23 02:17:17;;;;;;;45.90;21.65;;;13.70;80.00;;;;;;5059740;28;20044;-77
2020/12/23 02:19:52;;;;;;;39.65;20.27;;;13.70;80.40;;;;;;5061742;28;20021;-76
2020/12/23 02:22:20;;;;;;;37.97;21.65;;;13.70;80.50;;;;;;5054027;28;20116;-76
2020/12/23 02:24:50;;;;;;;42.78;22.35;;;13.70;80.50;;;;;;5054073;28;20041;-76
2020/12/23 02:27:17;;;;;;;35.80;19.88;;;13.70;80.30;;;;;;5053973;28;20529;-76
2020/12/23 02:29:48;;;;;;;45.53;23.23;;;13.70;80.20;;;;;;5054126;28;20151;-76
2020/12/23 02:32:14;;;;;;;37.30;20.70;;;13.70;80.30;;;;;;5031880;28;20068;-76
2020/12/23 02:34:40;;;;;;;47.88;24.02;;;13.70;80.30;;;;;;5052455;28;20387;-75
2020/12/23 02:37:08;;;;;;;44.90;20.73;;;13.70;80.30;;;;;;5034949;28;20047;-76
2020/12/23 02:39:34;;;;;;;41.03;23.40;;;13.80;80.20;;;;;;5052898;28;20100;-76
2020/12/23 02:42:02;;;;;;;35.97;19.48;;;13.80;80.10;;;;;;5063053;28;20239;-77
2020/12/23 02:44:28;;;;;;;44.15;22.58;;;13.80;80.00;;;;;;5052079;28;20379;-76
2020/12/23 02:46:57;;;;;;;41.95;21.83;;;13.90;80.00;;;;;;5063119;28;20048;-76
2020/12/23 02:49:22;;;;;;;40.45;22.63;;;13.90;79.80;;;;;;5061322;28;20505;-75
2020/12/23 02:51:48;;;;;;;52.17;25.17;;;13.90;79.60;;;;;;5054675;28;20029;-76
2020/12/23 02:54:14;;;;;;;48.00;24.10;;;13.90;79.80;;;;;;5067645;28;20037;-76
2020/12/23 02:56:39;;;;;;;43.40;20.80;;;13.90;79.90;;;;;;5057376;28;20082;-76
2020/12/23 02:59:05;;;;;;;48.50;23.27;;;13.90;79.90;;;;;;5052619;28;20375;-76
2020/12/23 03:01:31;;;;;;;46.22;23.10;;;13.90;79.80;;;;;;5056869;28;20041;-76
2020/12/23 03:03:56;;;;;;;44.55;22.83;;;13.90;79.80;;;;;;5044881;28;20067;-76
2020/12/23 03:06:22;;;;;;;57.22;23.73;;;13.90;79.80;;;;;;5060564;28;20044;-76
2020/12/23 03:08:47;;;;;;;48.67;22.20;;;13.90;79.90;;;;;;5055803;28;20055;-75
2020/12/23 03:11:13;;;;;;;48.05;20.98;;;13.80;80.00;;;;;;5050256;28;20041;-76
2020/12/23 03:13:39;;;;;;;49.08;24.25;;;13.80;80.30;;;;;;5055929;28;20056;-76
2020/12/23 03:16:04;;;;;;;54.95;25.40;;;13.70;80.40;;;;;;5036618;28;20255;-77
2020/12/23 03:18:31;;;;;;;56.90;24.60;;;13.70;80.50;;;;;;5064058;28;20047;-77
2020/12/23 03:20:57;;;;;;;48.15;22.52;;;13.70;80.50;;;;;;5025186;28;20360;-77
2020/12/23 03:23:22;;;;;;;50.50;23.70;;;13.70;80.70;;;;;;5040759;28;20029;-77
2020/12/23 03:25:48;;;;;;;50.70;21.90;;;13.70;80.70;;;;;;5056444;28;20040;-77
2020/12/23 03:28:13;;;;;;;49.90;22.50;;;13.70;80.80;;;;;;5054018;28;20044;-75
2020/12/23 03:30:39;;;;;;;55.10;23.77;;;13.70;80.80;;;;;;5063463;28;20919;-76
2020/12/23 03:33:04;;;;;;;52.78;22.45;;;13.70;80.80;;;;;;5035201;28;20521;-76
2020/12/23 03:35:30;;;;;;;62.58;21.38;;;13.80;80.70;;;;;;5035235;28;20249;-76
2020/12/23 03:37:56;;;;;;;49.38;22.83;;;13.80;80.60;;;;;;5064755;28;20145;-76
2020/12/23 03:40:21;;;;;;;48.13;21.20;;;13.80;80.50;;;;;;5050994;28;20474;-76
2020/12/23 03:42:47;;;;;;;61.67;25.77;;;13.80;80.50;;;;;;5047274;28;20040;-75
2020/12/23 03:45:12;;;;;;;51.42;23.23;;;13.80;80.50;;;;;;5054729;28;20035;-76
2020/12/23 03:47:38;;;;;;;48.10;25.88;;;13.80;80.50;;;;;;5062729;28;20474;-76
2020/12/23 03:50:04;;;;;;;52.50;24.67;;;13.90;80.50;;;;;;5059747;28;20044;-76
2020/12/23 03:52:30;;;;;;;53.53;23.88;;;13.90;80.40;;;;;;5032272;28;20566;-76
2020/12/23 03:54:56;;;;;;;72.30;25.67;;;13.90;80.40;;;;;;5058007;28;20103;-75
2020/12/23 03:57:22;;;;;;;45.67;24.05;;;13.90;80.50;;;;;;5049860;28;20108;-76
2020/12/23 03:59:48;;;;;;;49.58;22.52;;;13.90;80.50;;;;;;5032360;28;20211;-77
2020/12/23 04:02:13;;;;;;;64.50;25.70;;;13.90;80.50;;;;;;5032811;28;20402;-76
2020/12/23 04:04:39;;;;;;;62.22;27.35;;;13.90;80.60;;;;;;5040169;28;20041;-76
2020/12/23 04:07:05;;;;;;;63.63;24.75;;;13.90;80.50;;;;;;5040221;28;20026;-75
2020/12/23 04:09:30;;;;;;;52.75;23.80;;;13.90;80.50;;;;;;5058244;28;20044;-76
2020/12/23 04:11:56;;;;;;;61.55;23.75;;;14.00;80.50;;;;;;5046896;28;20060;-76
2020/12/23 04:14:21;;;;;;;60.33;23.02;;;14.00;80.50;;;;;;5053930;28;20029;-76
2020/12/23 04:16:47;;;;;;;56.67;23.67;;;14.00;80.60;;;;;;5058398;28;20121;-75
2020/12/23 04:19:13;;;;;;;56.13;22.38;;;14.00;80.60;;;;;;5052865;28;20128;-75
2020/12/23 04:21:38;;;;;;;60.35;23.30;;;13.90;80.60;;;;;;5052636;28;20476;-76
2020/12/23 04:24:04;;;;;;;59.38;24.15;;;14.00;80.70;;;;;;5050143;28;20029;-76
2020/12/23 04:26:29;;;;;;;52.08;22.98;;;14.00;80.70;;;;;;5046378;28;20388;-77
2020/12/23 04:28:55;;;;;;;56.45;24.35;;;14.00;80.60;;;;;;5051623;28;20200;-76
2020/12/23 04:31:20;;;;;;;59.75;23.77;;;14.00;80.60;;;;;;5053611;28;20407;-76
2020/12/23 04:33:46;;;;;;;62.00;23.75;;;14.00;80.70;;;;;;5055192;28;20044;-76
2020/12/23 04:36:12;;;;;;;64.75;24.27;;;14.00;80.80;;;;;;5066982;28;20037;-76
2020/12/23 04:38:37;;;;;;;52.38;23.33;;;14.00;80.90;;;;;;5052166;28;20368;-76
2020/12/23 04:41:03;;;;;;;55.70;25.60;;;14.00;80.90;;;;;;5051675;28;20111;-76
2020/12/23 04:43:29;;;;;;;64.20;27.13;;;14.10;80.90;;;;;;5053446;28;20343;-76
2020/12/23 04:45:57;;;;;;;59.33;26.88;;;14.10;80.80;;;;;;5041296;28;20064;-76
2020/12/23 04:48:26;;;;;;;61.28;24.65;;;14.10;80.90;;;;;;5054396;28;20086;-76
2020/12/23 04:50:56;;;;;;;64.35;26.38;;;14.00;81.10;;;;;;5042186;28;20043;-76
2020/12/23 04:53:23;;;;;;;48.53;22.33;;;13.90;81.20;;;;;;5062354;28;20020;-76
2020/12/23 04:55:48;;;;;;;57.67;24.13;;;14.00;81.40;;;;;;5055901;28;20483;-76
2020/12/23 04:58:14;;;;;;;53.42;22.98;;;14.00;81.40;;;;;;5039998;28;20064;-76
2020/12/23 05:00:40;;;;;;;46.15;20.65;;;14.00;81.60;;;;;;5035618;28;20040;-76
2020/12/23 05:03:05;;;;;;;48.45;22.75;;;13.90;81.60;;;;;;5053055;28;20052;-76
2020/12/23 05:05:31;;;;;;;46.85;21.35;;;14.00;81.60;;;;;;5050097;28;20076;-76
2020/12/23 05:07:57;;;;;;;45.28;19.25;;;14.00;81.60;;;;;;5054632;28;20065;-76
2020/12/23 05:10:28;;;;;;;41.28;20.25;;;14.00;81.50;;;;;;5054510;28;20033;-76
2020/12/23 05:12:55;;;;;;;45.60;20.35;;;14.10;81.50;;;;;;5053211;28;20063;-76
2020/12/23 05:15:20;;;;;;;37.83;20.70;;;14.10;81.40;;;;;;5048756;28;20323;-76
2020/12/23 05:17:46;;;;;;;33.22;16.67;;;14.10;81.50;;;;;;5047366;28;20513;-76
2020/12/23 05:20:12;;;;;;;43.45;20.77;;;14.10;81.40;;;;;;5051868;28;20044;-76
2020/12/23 05:22:38;;;;;;;41.67;19.63;;;14.20;81.30;;;;;;5055333;28;20053;-76
2020/12/23 05:25:04;;;;;;;47.45;21.05;;;14.30;81.10;;;;;;5053301;28;20104;-76
2020/12/23 05:27:33;;;;;;;42.88;19.40;;;14.30;81.00;;;;;;5058719;28;20044;-76
2020/12/23 05:30:02;;;;;;;35.35;17.15;;;14.30;80.90;;;;;;5071405;28;20161;-76
2020/12/23 05:32:28;;;;;;;36.78;18.33;;;14.30;81.00;;;;;;5059542;28;20029;-76
2020/12/23 05:34:59;;;;;;;34.30;17.60;;;14.30;81.10;;;;;;5049580;28;20127;-76
2020/12/23 05:37:26;;;;;;;30.80;15.15;;;14.30;81.10;;;;;;5053535;28;20025;-76
2020/12/23 05:39:51;;;;;;;34.63;17.95;;;14.30;81.30;;;;;;5053905;28;20045;-76
2020/12/23 05:42:18;;;;;;;29.45;15.75;;;14.30;81.40;;;;;;5054054;28;20395;-76
2020/12/23 05:44:54;;;;;;;31.35;15.75;;;14.30;81.50;;;;;;5041808;28;20051;-76
2020/12/23 05:47:24;;;;;;;29.52;15.18;;;14.20;81.60;;;;;;5056992;28;20055;-76
2020/12/23 05:49:51;;;;;;;31.67;15.93;;;14.20;81.70;;;;;;5062141;28;20783;-75
2020/12/23 05:52:21;;;;;;;33.42;17.02;;;14.20;81.70;;;;;;5051841;28;20074;-76
2020/12/23 05:54:53;;;;;;;28.10;14.80;;;14.20;81.70;;;;;;5048659;28;20025;-76
2020/12/23 05:57:19;;;;;;;28.25;15.27;;;14.20;81.80;;;;;;5054954;28;20017;-75
2020/12/23 05:59:45;;;;;;;24.55;14.55;;;14.20;82.10;;;;;;5046211;28;20127;-76
2020/12/23 06:02:15;;;;;;;25.13;14.82;;;14.20;82.30;;;;;;5056024;28;20420;-76
2020/12/23 06:04:44;;;;;;;24.98;14.43;;;14.20;82.30;;;;;;5054788;28;20040;-76
2020/12/23 06:07:11;;;;;;;25.08;14.10;;;14.20;82.30;;;;;;5053575;28;20106;-75
2020/12/23 06:09:39;;;;;;;22.95;12.82;;;14.20;82.30;;;;;;5069652;28;20048;-74
2020/12/23 06:12:21;;;;;;;23.38;12.98;;;14.30;82.30;;;;;;5076215;28;20028;-76
2020/12/23 06:14:58;;;;;;;25.48;14.23;;;14.30;82.30;;;;;;5071456;28;20029;-76
2020/12/23 06:17:25;;;;;;;24.48;13.85;;;14.30;82.30;;;;;;5062154;28;20081;-75
2020/12/23 06:19:56;;;;;;;28.27;16.77;;;14.30;82.40;;;;;;5073291;28;20037;-76
2020/12/23 06:22:26;;;;;;;25.73;13.85;;;14.30;82.50;;;;;;5064478;28;20028;-76
2020/12/23 06:24:52;;;;;;;25.88;16.45;;;14.30;82.70;;;;;;5064161;28;20086;-75
2020/12/23 06:27:18;;;;;;;20.65;12.45;;;14.20;82.70;;;;;;5059312;28;20382;-76
2020/12/23 06:29:46;;;;;;;19.38;11.95;;;14.30;82.80;;;;;;5052334;28;20139;-75
2020/12/23 06:32:22;;;;;;;17.48;10.23;;;14.30;82.80;;;;;;5047403;28;20047;-76
2020/12/23 06:35:06;;;;;;;17.42;10.45;;;14.30;82.70;;;;;;5068448;28;20078;-76
2020/12/23 06:37:33;;;;;;;18.20;10.43;;;14.30;82.60;;;;;;5073864;28;20111;-76
2020/12/23 06:40:06;;;;;;;15.57;10.07;;;14.40;82.60;;;;;;5060476;28;20546;-75
2020/12/23 06:42:32;;;;;;;16.60;11.02;;;14.40;82.50;;;;;;5073916;28;20028;-76
2020/12/23 06:44:58;;;;;;;16.35;10.02;;;14.50;82.40;;;;;;5034863;28;20403;-74
2020/12/23 06:47:30;;;;;;;14.40;8.70;;;14.50;82.20;;;;;;5069775;28;20028;-76
2020/12/23 06:49:58;;;;;;;15.13;9.15;;;14.60;82.00;;;;;;5072026;28;20028;-75
2020/12/23 06:52:24;;;;;;;15.63;10.75;;;14.70;81.80;;;;;;5071707;28;20033;-76
2020/12/23 06:55:02;;;;;;;17.08;10.27;;;14.70;81.70;;;;;;5063869;28;20031;-76
2020/12/23 06:57:37;;;;;;;17.60;10.50;;;14.70;81.60;;;;;;5055974;28;20394;-75
2020/12/23 07:00:13;;;;;;;16.38;9.65;;;14.80;81.60;;;;;;5067612;28;20063;-75
2020/12/23 07:02:49;;;;;;;15.13;9.05;;;14.70;81.60;;;;;;5080170;28;20080;-76
2020/12/23 07:05:21;;;;;;;16.52;9.38;;;14.80;81.60;;;;;;5053565;28;20036;-75
2020/12/23 07:07:49;;;;;;;17.70;9.82;;;14.80;81.60;;;;;;5048207;28;20032;-75
2020/12/23 07:10:20;;;;;;;17.30;11.43;;;14.80;81.70;;;;;;5066614;28;20024;-76
2020/12/23 07:12:49;;;;;;;19.80;11.27;;;14.80;81.70;;;;;;5072109;28;20021;-76
2020/12/23 07:15:25;;;;;;;19.50;12.80;;;14.80;81.70;;;;;;5070893;28;20033;-76
2020/12/23 07:18:00;;;;;;;17.70;10.85;;;15.00;81.80;;;;;;5053869;28;20040;-77
2020/12/23 07:20:26;;;;;;;21.58;12.30;;;14.90;81.70;;;;;;5069078;28;20153;-76
2020/12/23 07:22:53;;;;;;;17.42;10.52;;;14.90;81.80;;;;;;5067837;28;20488;-77
2020/12/23 07:25:22;;;;;;;18.48;10.93;;;15.00;81.70;;;;;;5054010;28;20036;-76
2020/12/23 07:27:51;;;;;;;17.50;10.25;;;15.00;81.60;;;;;;5056176;28;20032;-76
2020/12/23 07:30:17;;;;;;;17.88;12.05;;;15.00;81.50;;;;;;5068540;28;20528;-75
2020/12/23 07:32:43;;;;;;;16.05;10.48;;;15.10;81.60;;;;;;5034149;28;20132;-75
2020/12/23 07:35:09;;;;;;;17.60;11.32;;;15.10;81.60;;;;;;5052347;28;20492;-75
2020/12/23 07:37:39;;;;;;;18.40;12.35;;;15.20;81.70;;;;;;5049681;28;20056;-76
2020/12/23 07:40:15;;;;;;;15.25;10.30;;;15.20;81.60;;;;;;5050272;28;20037;-76
2020/12/23 07:42:47;;;;;;;14.82;9.60;;;15.20;81.70;;;;;;5051570;28;20037;-76
2020/12/23 07:45:12;;;;;;;14.07;9.43;;;15.20;81.80;;;;;;5049562;28;20031;-76
2020/12/23 07:47:38;;;;;;;14.98;10.02;;;15.20;81.90;;;;;;5048943;28;20050;-75
2020/12/23 07:50:05;;;;;;;16.92;9.85;;;15.30;81.90;;;;;;5061182;28;20095;-75
2020/12/23 07:52:32;;;;;;;14.07;9.38;;;15.30;82.00;;;;;;5047874;28;20028;-75
2020/12/23 07:55:14;;;;;;;13.95;8.52;;;15.30;82.10;;;;;;5071781;28;20025;-75
2020/12/23 07:57:42;;;;;;;15.07;10.43;;;15.30;82.00;;;;;;5070527;28;20450;-76
2020/12/23 08:00:09;;;;;;;15.25;9.25;;;15.30;82.10;;;;;;5052054;28;20062;-76
2020/12/23 08:02:35;;;;;;;22.48;10.88;;;15.40;82.00;;;;;;5070328;28;20053;-76
2020/12/23 08:05:01;;;;;;;18.63;10.70;;;15.50;82.00;;;;;;5071859;28;20623;-75
2020/12/23 08:07:27;;;;;;;13.82;9.35;;;15.50;82.00;;;;;;5063365;28;20043;-75
2020/12/23 08:09:53;;;;;;;14.63;10.13;;;15.50;82.00;;;;;;5061594;28;20451;-75
2020/12/23 08:12:19;;;;;;;13.50;8.98;;;15.50;82.10;;;;;;5061654;28;20037;-84
2020/12/23 08:14:46;;;;;;;14.07;9.70;;;15.50;82.10;;;;;;5056270;28;20173;-82
2020/12/23 08:17:22;;;;;;;15.43;8.93;;;15.50;82.30;;;;;;5051236;28;20057;-73
2020/12/23 08:20:01;;;;;;;12.38;8.48;;;15.40;82.30;;;;;;5051834;28;20119;-85
2020/12/23 08:22:31;;;;;;;13.55;8.95;;;15.50;82.30;;;;;;5040288;28;20471;-81
2020/12/23 08:25:01;;;;;;;16.38;10.20;;;15.50;82.30;;;;;;5057898;28;20024;-81
2020/12/23 08:27:28;;;;;;;13.85;9.38;;;15.50;82.40;;;;;;5063204;28;20060;-78
2020/12/23 08:29:54;;;;;;;13.80;9.75;;;15.50;82.50;;;;;;5045974;28;20122;-75
2020/12/23 08:32:24;;;;;;;15.35;10.27;;;15.50;82.70;;;;;;5048364;28;20438;-72
2020/12/23 08:34:52;;;;;;;12.63;9.20;;;15.50;82.80;;;;;;5059011;28;20106;-73
2020/12/23 08:37:22;;;;;;;12.35;8.02;;;15.50;82.90;;;;;;5049359;28;20451;-72
2020/12/23 08:39:58;;;;;;;13.52;9.50;;;15.50;82.80;;;;;;5064750;28;20501;-72
2020/12/23 08:42:24;;;;;;;13.13;8.75;;;15.50;82.70;;;;;;5063206;28;20119;-72
2020/12/23 08:44:52;;;;;;;13.18;8.82;;;15.50;82.70;;;;;;5052327;28;20037;-80
2020/12/23 08:47:32;;;;;;;14.20;8.05;;;15.50;82.70;;;;;;5033604;28;20025;-80
2020/12/23 08:49:59;;;;;;;13.85;8.45;;;15.50;82.60;;;;;;5060646;28;20488;-78
2020/12/23 08:52:26;;;;;;;10.50;7.07;;;15.50;82.70;;;;;;5055812;28;20036;-79
2020/12/23 08:54:52;;;;;;;11.93;7.22;;;15.60;82.80;;;;;;5052273;28;20103;-82
2020/12/23 08:57:28;;;;;;;11.40;7.70;;;15.60;82.80;;;;;;5039026;28;20095;-83
2020/12/23 08:59:55;;;;;;;10.95;8.20;;;15.60;82.70;;;;;;5055757;28;20047;-84
2020/12/23 09:02:22;;;;;;;10.80;7.45;;;15.60;82.70;;;;;;5059551;28;20101;-81
2020/12/23 09:04:47;;;;;;;12.57;7.38;;;15.50;82.60;;;;;;5060569;28;20107;-83
2020/12/23 09:07:20;;;;;;;11.10;6.95;;;15.60;82.60;;;;;;5059636;28;20107;-81
2020/12/23 09:09:46;;;;;;;11.00;7.43;;;15.60;82.60;;;;;;5060405;28;20027;-74
2020/12/23 09:12:20;;;;;;;8.55;5.63;;;15.60;82.70;;;;;;5059543;28;20092;-82
2020/12/23 09:14:46;;;;;;;8.40;5.60;;;15.60;82.60;;;;;;5054074;28;20134;-83
2020/12/23 09:17:23;;;;;;;11.10;6.53;;;15.70;82.50;;;;;;5062186;28;20574;-81
2020/12/23 09:19:52;;;;;;;10.07;6.78;;;15.70;82.40;;;;;;5055044;28;20036;-81
2020/12/23 09:22:32;;;;;;;10.45;6.18;;;15.70;82.40;;;;;;5059892;28;20119;-81
2020/12/23 09:25:15;;;;;;;9.80;6.35;;;15.60;82.40;;;;;;5055172;28;20523;-83
2020/12/23 09:27:42;;;;;;;10.70;6.15;;;15.70;82.50;;;;;;5042806;28;20506;-74
2020/12/23 09:30:09;;;;;;;9.52;5.50;;;15.60;82.40;;;;;;5063792;28;20025;-81
2020/12/23 09:32:35;;;;;;;9.98;6.05;;;15.60;82.50;;;;;;5043621;28;20024;-74
2020/12/23 09:35:15;;;;;;;9.30;5.53;;;15.70;82.40;;;;;;5037454;28;20040;-75
2020/12/23 09:37:43;;;;;;;7.47;4.53;;;15.70;82.30;;;;;;5061003;28;20024;-78
2020/12/23 09:40:09;;;;;;;7.80;5.30;;;15.80;82.30;;;;;;5042201;28;20032;-76
2020/12/23 09:42:35;;;;;;;8.60;4.93;;;15.70;82.40;;;;;;5046964;28;20283;-74
2020/12/23 09:45:00;;;;;;;7.53;4.43;;;15.70;82.30;;;;;;5043984;28;20033;-74
2020/12/23 09:47:26;;;;;;;6.97;3.95;;;15.80;82.30;;;;;;5065277;28;20336;-75
2020/12/23 09:49:52;;;;;;;6.47;4.00;;;15.80;82.30;;;;;;5027073;28;20079;-75
2020/12/23 09:52:17;;;;;;;8.98;5.22;;;15.80;82.20;;;;;;5066275;28;20036;-75
2020/12/23 09:54:43;;;;;;;8.32;4.88;;;15.80;82.10;;;;;;5065707;28;20111;-75
2020/12/23 09:57:08;;;;;;;7.70;4.00;;;15.80;82.10;;;;;;5061060;28;20039;-76
2020/12/23 09:59:34;;;;;;;9.23;4.70;;;15.80;82.00;;;;;;5031979;28;20037;-76
2020/12/23 10:02:00;;;;;;;6.65;3.80;;;15.90;81.90;;;;;;5065573;28;20408;-74
2020/12/23 10:04:25;;;;;;;7.00;3.75;;;15.80;81.80;;;;;;5064957;28;20473;-75
2020/12/23 10:06:51;;;;;;;7.20;4.28;;;15.90;81.70;;;;;;5067510;28;20024;-75
2020/12/23 10:09:16;;;;;;;8.25;4.20;;;15.90;81.60;;;;;;5064559;28;20158;-74
2020/12/23 10:11:42;;;;;;;7.85;4.63;;;15.90;81.50;;;;;;5060802;28;20037;-75
2020/12/23 10:14:08;;;;;;;8.85;4.25;;;15.90;81.50;;;;;;5064885;28;20035;-75
2020/12/23 10:16:34;;;;;;;8.35;5.15;;;15.90;81.50;;;;;;5031805;28;20032;-75
2020/12/23 10:19:00;;;;;;;8.25;4.82;;;15.90;81.40;;;;;;5032059;28;20522;-74
2020/12/23 10:21:26;;;;;;;7.50;4.43;;;15.90;81.50;;;;;;5051646;28;20115;-75
2020/12/23 10:23:52;;;;;;;8.48;5.43;;;15.90;81.60;;;;;;5070560;28;20036;-75
2020/12/23 10:26:18;;;;;;;9.88;4.93;;;15.90;81.60;;;;;;5061097;28;20033;-75
2020/12/23 10:28:45;;;;;;;7.70;3.90;;;15.90;81.60;;;;;;5051306;28;20086;-74
2020/12/23 10:31:10;;;;;;;7.28;4.35;;;16.00;81.50;;;;;;5052914;28;20068;-74
2020/12/23 10:33:37;;;;;;;7.38;4.15;;;16.00;81.30;;;;;;5044318;28;20123;-74
2020/12/23 10:36:07;;;;;;;13.50;4.90;;;16.10;81.20;;;;;;5063344;28;20761;-74
2020/12/23 10:38:33;;;;;;;7.25;4.50;;;16.10;81.10;;;;;;5059891;28;20040;-75
2020/12/23 10:40:58;;;;;;;7.15;4.28;;;16.20;81.10;;;;;;5038289;28;20116;-74
2020/12/23 10:43:24;;;;;;;10.65;4.60;;;16.10;80.90;;;;;;5039140;28;20111;-74
2020/12/23 10:45:50;;;;;;;7.70;4.90;;;16.10;80.80;;;;;;5061447;28;20066;-75
2020/12/23 10:48:17;;;;;;;7.78;4.68;;;16.20;80.80;;;;;;5031303;28;20501;-74
2020/12/23 10:50:44;;;;;;;6.95;4.30;;;16.20;80.70;;;;;;5036938;28;20020;-75
2020/12/23 10:53:10;;;;;;;7.00;4.70;;;16.20;80.70;;;;;;5058698;28;20098;-74
2020/12/23 10:55:35;;;;;;;9.48;5.22;;;16.20;80.60;;;;;;5041056;28;20489;-73
2020/12/23 10:58:01;;;;;;;12.60;5.13;;;16.20;80.60;;;;;;5045088;28;20043;-73
2020/12/23 11:00:27;;;;;;;9.02;4.85;;;16.30;80.50;;;;;;5058800;28;20051;-74
2020/12/23 11:02:52;;;;;;;7.80;5.28;;;16.20;80.50;;;;;;5026334;28;20056;-75
2020/12/23 11:05:19;;;;;;;9.23;5.05;;;16.20;80.50;;;;;;5030816;28;20051;-74
2020/12/23 11:07:46;;;;;;;6.63;4.35;;;15.90;80.50;;;;;;5062987;28;20497;-73
2020/12/23 11:10:11;;;;;;;7.18;4.80;;;16.10;80.70;;;;;;5055182;28;20031;-75
2020/12/23 11:12:37;;;;;;;8.80;4.38;;;16.10;80.70;;;;;;5052534;28;20036;-75
2020/12/23 11:15:03;;;;;;;8.20;4.90;;;16.10;80.60;;;;;;5051186;28;20400;-75
2020/12/23 11:17:28;;;;;;;8.02;4.68;;;16.10;80.70;;;;;;5023704;28;20699;-75
2020/12/23 11:19:54;;;;;;;6.80;4.55;;;16.00;80.80;;;;;;5053162;28;20335;-85
2020/12/23 11:22:20;;;;;;;8.50;5.57;;;16.10;80.80;;;;;;5053877;28;20036;-81
2020/12/23 11:24:46;;;;;;;9.63;5.93;;;16.10;80.80;;;;;;5038597;28;20033;-81
2020/12/23 11:27:12;;;;;;;8.55;5.43;;;15.90;80.90;;;;;;5020915;28;20034;-79
2020/12/23 11:29:38;;;;;;;8.65;4.93;;;15.90;81.20;;;;;;5045620;28;20029;-86
2020/12/23 11:32:03;;;;;;;9.07;5.63;;;15.80;81.30;;;;;;5063044;28;20158;-79
2020/12/23 11:34:29;;;;;;;8.85;6.05;;;15.90;81.30;;;;;;5054798;28;20048;-80
2020/12/23 11:36:59;;;;;;;7.70;5.22;;;15.90;81.30;;;;;;5038779;28;20044;-84
2020/12/23 11:39:25;;;;;;;8.27;5.20;;;15.90;81.20;;;;;;5036752;28;20509;-80
2020/12/23 11:41:55;;;;;;;9.45;6.18;;;15.90;81.20;;;;;;5052846;28;20029;-79
2020/12/23 11:44:21;;;;;;;9.00;6.30;;;15.90;81.30;;;;;;5033532;28;20043;-77
2020/12/23 11:46:47;;;;;;;9.40;5.72;;;15.80;81.40;;;;;;5051964;28;20028;-77
2020/12/23 11:49:13;;;;;;;9.40;6.38;;;15.90;81.50;;;;;;5037185;28;20047;-78
2020/12/23 11:51:39;;;;;;;9.48;6.45;;;15.80;81.50;;;;;;5055282;28;20032;-79
2020/12/23 11:54:05;;;;;;;21.20;7.55;;;15.80;81.70;;;;;;5040154;28;20455;-76
2020/12/23 11:56:31;;;;;;;10.63;7.45;;;15.80;81.80;;;;;;5056592;28;20385;-79
2020/12/23 11:58:56;;;;;;;9.07;5.90;;;15.80;81.70;;;;;;5038866;28;20044;-80
2020/12/23 12:01:23;;;;;;;8.23;5.90;;;15.90;81.60;;;;;;5040811;28;20047;-82
2020/12/23 12:03:49;;;;;;;8.63;5.97;;;15.90;81.50;;;;;;5043404;28;20064;-78
2020/12/23 12:06:22;;;;;;;9.27;5.68;;;15.90;81.60;;;;;;5040806;28;20033;-79
2020/12/23 12:08:48;;;;;;;;;;;15.70;82.20;;;;;;5068152;28;20391;-77
2020/12/23 12:11:15;;;;;;;10.13;6.10;;;15.90;81.30;;;;;;5043701;28;19917;-79
2020/12/23 12:13:41;;;;;;;8.68;6.78;;;15.90;81.30;;;;;;5059622;28;20124;-79
2020/12/23 12:16:07;;;;;;;8.75;6.43;;;15.90;81.40;;;;;;5065676;28;20040;-78
2020/12/23 12:18:32;;;;;;;8.70;6.18;;;15.80;81.60;;;;;;5056032;28;20035;-76
2020/12/23 12:20:58;;;;;;;8.25;5.68;;;15.80;81.70;;;;;;5050769;28;20056;-75
2020/12/23 12:23:24;;;;;;;7.70;5.50;;;15.80;81.70;;;;;;5025384;28;20033;-75
2020/12/23 12:25:49;;;;;;;7.70;5.18;;;15.90;81.70;;;;;;5028059;28;20036;-75
2020/12/23 12:28:15;;;;;;;8.32;5.40;;;15.80;81.70;;;;;;5043672;28;20040;-76
2020/12/23 12:30:41;;;;;;;7.32;5.32;;;15.90;81.70;;;;;;5044963;28;20111;-76
2020/12/23 12:33:06;;;;;;;7.38;5.57;;;15.90;81.70;;;;;;5038021;28;20390;-75